sensor_id;sensor_type;location;lat;lon;timestamp;pressure;altitude;pressure_sealevel;temperature;humidity
46087;BME280;31824;49.648;8.640;2023-05-01T00:01:45;100330.78;;;13.56;100.00
46087;BME280;31824;49.648;8.640;2023-05-01T00:04:50;100329.97;;;13.67;100.00
46087;BME280;31824;49.648;8.640;2023-05-01T00:07:54;100320.59;;;13.60;100.00
46087;BME280;31824;49.648;8.640;2023-05-01T00:11:01;100325.72;;;13.69;100.00
46087;BME280;31824;49.648;8.640;2023-05-01T00:14:03;100315.34;;;13.50;100.00
46087;BME280;31824;49.648;8.640;2023-05-01T00:17:08;100320.03;;;13.42;100.00
46087;BME280;31824;49.648;8.640;2023-05-01T00:20:10;100317.53;;;13.66;100.00
46087;BME280;31824;49.648;8.640;2023-05-01T00:23:13;100318.75;;;13.59;100.00
46087;BME280;31824;49.648;8.640;2023-05-01T00:26:15;100306.44;;;13.38;100.00
46087;BME280;31824;49.648;8.640;2023-05-01T00:29:20;100300.84;;;13.45;100.00
46087;BME280;31824;49.648;8.640;2023-05-01T00:32:23;100301.91;;;13.47;100.00
46087;BME280;31824;49.648;8.640;2023-05-01T00:35:26;100295.22;;;13.40;100.00
46087;BME280;31824;49.648;8.640;2023-05-01T00:38:28;100296.41;;;13.44;100.00
46087;BME280;31824;49.648;8.640;2023-05-01T00:41:30;100291.53;;;13.38;100.00
46087;BME280;31824;49.648;8.640;2023-05-01T00:44:32;100285.34;;;13.27;100.00
46087;BME280;31824;49.648;8.640;2023-05-01T00:47:35;100281.94;;;13.18;100.00
46087;BME280;31824;49.648;8.640;2023-05-01T00:50:39;100282.69;;;13.27;100.00
46087;BME280;31824;49.648;8.640;2023-05-01T00:53:42;100279.00;;;13.25;100.00
46087;BME280;31824;49.648;8.640;2023-05-01T00:56:46;100274.50;;;13.24;100.00
46087;BME280;31824;49.648;8.640;2023-05-01T00:59:49;100270.53;;;13.29;100.00
46087;BME280;31824;49.648;8.640;2023-05-01T01:02:52;100271.09;;;13.15;100.00
46087;BME280;31824;49.648;8.640;2023-05-01T01:05:56;100261.59;;;13.27;100.00
46087;BME280;31824;49.648;8.640;2023-05-01T01:09:10;100249.84;;;13.24;100.00
46087;BME280;31824;49.648;8.640;2023-05-01T01:12:19;100253.31;;;13.12;100.00
46087;BME280;31824;49.648;8.640;2023-05-01T01:15:28;100238.72;;;13.06;100.00
46087;BME280;31824;49.648;8.640;2023-05-01T01:18:42;100236.78;;;13.25;100.00
46087;BME280;31824;49.648;8.640;2023-05-01T01:21:52;100234.59;;;13.09;100.00
46087;BME280;31824;49.648;8.640;2023-05-01T01:25:26;100235.13;;;13.05;100.00
46087;BME280;31824;49.648;8.640;2023-05-01T01:32:09;100230.28;;;12.99;100.00
46087;BME280;31824;49.648;8.640;2023-05-01T01:35:24;100232.78;;;12.98;100.00
46087;BME280;31824;49.648;8.640;2023-05-01T01:38:35;100232.00;;;12.99;100.00
46087;BME280;31824;49.648;8.640;2023-05-01T01:41:39;100228.06;;;12.83;100.00
46087;BME280;31824;49.648;8.640;2023-05-01T01:44:51;100230.56;;;12.82;100.00
46087;BME280;31824;49.648;8.640;2023-05-01T01:47:54;100226.72;;;12.99;100.00
46087;BME280;31824;49.648;8.640;2023-05-01T01:51:00;100230.97;;;12.87;100.00
46087;BME280;31824;49.648;8.640;2023-05-01T01:54:03;100218.03;;;12.90;100.00
46087;BME280;31824;49.648;8.640;2023-05-01T01:57:10;100218.47;;;12.74;100.00
46087;BME280;31824;49.648;8.640;2023-05-01T02:00:14;100215.00;;;12.85;100.00
46087;BME280;31824;49.648;8.640;2023-05-01T02:03:20;100216.72;;;12.84;100.00
46087;BME280;31824;49.648;8.640;2023-05-01T02:06:27;100211.97;;;12.91;100.00
46087;BME280;31824;49.648;8.640;2023-05-01T02:09:30;100215.94;;;12.86;100.00
46087;BME280;31824;49.648;8.640;2023-05-01T02:12:35;100213.06;;;12.82;100.00
46087;BME280;31824;49.648;8.640;2023-05-01T02:15:39;100202.50;;;12.82;100.00
46087;BME280;31824;49.648;8.640;2023-05-01T02:18:42;100198.03;;;12.71;100.00
46087;BME280;31824;49.648;8.640;2023-05-01T02:21:49;100206.44;;;12.88;100.00
46087;BME280;31824;49.648;8.640;2023-05-01T02:24:53;100206.47;;;12.67;100.00
46087;BME280;31824;49.648;8.640;2023-05-01T02:27:58;100206.84;;;12.82;100.00
46087;BME280;31824;49.648;8.640;2023-05-01T02:31:01;100217.94;;;12.78;100.00
46087;BME280;31824;49.648;8.640;2023-05-01T02:34:03;100213.69;;;12.90;100.00
46087;BME280;31824;49.648;8.640;2023-05-01T02:37:07;100213.31;;;12.86;100.00
46087;BME280;31824;49.648;8.640;2023-05-01T02:40:13;100201.75;;;12.73;100.00
46087;BME280;31824;49.648;8.640;2023-05-01T02:43:18;100196.97;;;12.79;100.00
46087;BME280;31824;49.648;8.640;2023-05-01T02:46:23;100199.88;;;12.82;100.00
46087;BME280;31824;49.648;8.640;2023-05-01T02:49:29;100201.69;;;12.83;100.00
46087;BME280;31824;49.648;8.640;2023-05-01T02:52:34;100195.75;;;12.86;100.00
46087;BME280;31824;49.648;8.640;2023-05-01T02:55:56;100187.59;;;12.83;100.00
46087;BME280;31824;49.648;8.640;2023-05-01T02:58:59;100187.06;;;12.87;100.00
46087;BME280;31824;49.648;8.640;2023-05-01T03:02:03;100186.00;;;12.85;100.00
46087;BME280;31824;49.648;8.640;2023-05-01T03:05:06;100185.50;;;12.89;100.00
46087;BME280;31824;49.648;8.640;2023-05-01T03:08:09;100179.94;;;12.86;100.00
46087;BME280;31824;49.648;8.640;2023-05-01T03:11:12;100176.41;;;12.86;100.00
46087;BME280;31824;49.648;8.640;2023-05-01T03:14:16;100179.13;;;12.97;100.00
46087;BME280;31824;49.648;8.640;2023-05-01T03:17:18;100177.31;;;12.86;100.00
46087;BME280;31824;49.648;8.640;2023-05-01T03:20:22;100168.50;;;12.86;100.00
46087;BME280;31824;49.648;8.640;2023-05-01T03:23:27;100170.47;;;12.88;100.00
46087;BME280;31824;49.648;8.640;2023-05-01T03:26:29;100164.78;;;12.83;100.00
46087;BME280;31824;49.648;8.640;2023-05-01T03:29:31;100176.53;;;12.87;100.00
46087;BME280;31824;49.648;8.640;2023-05-01T03:32:34;100167.06;;;12.69;100.00
46087;BME280;31824;49.648;8.640;2023-05-01T03:35:38;100165.50;;;12.71;100.00
46087;BME280;31824;49.648;8.640;2023-05-01T03:38:41;100164.59;;;12.70;100.00
46087;BME280;31824;49.648;8.640;2023-05-01T03:41:43;100163.09;;;12.74;100.00
46087;BME280;31824;49.648;8.640;2023-05-01T03:44:55;100167.41;;;12.83;100.00
46087;BME280;31824;49.648;8.640;2023-05-01T03:47:58;100169.16;;;12.73;100.00
46087;BME280;31824;49.648;8.640;2023-05-01T03:51:00;100164.31;;;12.67;100.00
46087;BME280;31824;49.648;8.640;2023-05-01T03:54:04;100159.69;;;12.75;100.00
46087;BME280;31824;49.648;8.640;2023-05-01T03:57:16;100160.53;;;12.63;100.00
46087;BME280;31824;49.648;8.640;2023-05-01T04:00:19;100166.34;;;12.59;100.00
46087;BME280;31824;49.648;8.640;2023-05-01T04:03:22;100165.91;;;12.65;100.00
46087;BME280;31824;49.648;8.640;2023-05-01T04:06:26;100161.00;;;12.70;100.00
46087;BME280;31824;49.648;8.640;2023-05-01T04:09:30;100168.06;;;12.48;100.00
46087;BME280;31824;49.648;8.640;2023-05-01T04:12:32;100162.63;;;12.57;100.00
46087;BME280;31824;49.648;8.640;2023-05-01T04:15:34;100168.31;;;12.52;100.00
46087;BME280;31824;49.648;8.640;2023-05-01T04:18:36;100162.91;;;12.50;100.00
46087;BME280;31824;49.648;8.640;2023-05-01T04:21:38;100159.22;;;12.48;100.00
46087;BME280;31824;49.648;8.640;2023-05-01T04:24:42;100166.22;;;12.37;100.00
46087;BME280;31824;49.648;8.640;2023-05-01T04:27:47;100158.97;;;12.45;100.00
46087;BME280;31824;49.648;8.640;2023-05-01T04:30:49;100157.41;;;12.37;100.00
46087;BME280;31824;49.648;8.640;2023-05-01T04:33:51;100157.16;;;12.33;100.00
46087;BME280;31824;49.648;8.640;2023-05-01T04:36:54;100158.31;;;12.37;100.00
46087;BME280;31824;49.648;8.640;2023-05-01T04:39:58;100156.88;;;12.41;100.00
46087;BME280;31824;49.648;8.640;2023-05-01T04:43:00;100163.69;;;12.39;100.00
46087;BME280;31824;49.648;8.640;2023-05-01T04:46:03;100160.44;;;12.31;100.00
46087;BME280;31824;49.648;8.640;2023-05-01T04:49:05;100163.31;;;12.34;100.00
46087;BME280;31824;49.648;8.640;2023-05-01T04:52:07;100164.13;;;12.23;100.00
46087;BME280;31824;49.648;8.640;2023-05-01T04:55:24;100166.34;;;12.18;100.00
46087;BME280;31824;49.648;8.640;2023-05-01T04:58:39;100169.53;;;12.04;100.00
46087;BME280;31824;49.648;8.640;2023-05-01T05:02:02;100174.66;;;12.02;100.00
46087;BME280;31824;49.648;8.640;2023-05-01T05:05:06;100172.66;;;11.89;100.00
46087;BME280;31824;49.648;8.640;2023-05-01T05:08:08;100176.88;;;11.87;100.00
46087;BME280;31824;49.648;8.640;2023-05-01T05:11:14;100169.88;;;11.88;100.00
46087;BME280;31824;49.648;8.640;2023-05-01T05:14:22;100162.34;;;11.72;100.00
46087;BME280;31824;49.648;8.640;2023-05-01T05:17:24;100164.31;;;11.64;100.00
46087;BME280;31824;49.648;8.640;2023-05-01T05:20:27;100168.56;;;11.72;100.00
46087;BME280;31824;49.648;8.640;2023-05-01T05:23:30;100170.41;;;11.83;100.00
46087;BME280;31824;49.648;8.640;2023-05-01T05:26:35;100170.41;;;11.83;100.00
46087;BME280;31824;49.648;8.640;2023-05-01T05:29:37;100166.59;;;11.70;100.00
46087;BME280;31824;49.648;8.640;2023-05-01T05:32:39;100168.56;;;11.72;100.00
46087;BME280;31824;49.648;8.640;2023-05-01T05:35:42;100170.78;;;11.68;100.00
46087;BME280;31824;49.648;8.640;2023-05-01T05:38:44;100174.31;;;11.58;100.00
46087;BME280;31824;49.648;8.640;2023-05-01T05:41:52;100174.03;;;11.44;100.00
46087;BME280;31824;49.648;8.640;2023-05-01T05:44:54;100174.06;;;11.55;100.00
46087;BME280;31824;49.648;8.640;2023-05-01T05:47:57;100162.22;;;11.70;100.00
46087;BME280;31824;49.648;8.640;2023-05-01T05:51:00;100161.03;;;11.66;100.00
46087;BME280;31824;49.648;8.640;2023-05-01T05:54:02;100164.06;;;11.81;100.00
46087;BME280;31824;49.648;8.640;2023-05-01T05:57:09;100162.03;;;12.08;100.00
46087;BME280;31824;49.648;8.640;2023-05-01T06:00:17;100167.94;;;12.37;100.00
46087;BME280;31824;49.648;8.640;2023-05-01T06:03:25;100162.47;;;12.66;100.00
46087;BME280;31824;49.648;8.640;2023-05-01T06:06:32;100169.88;;;12.49;100.00
46087;BME280;31824;49.648;8.640;2023-05-01T06:09:34;100160.59;;;12.75;100.00
46087;BME280;31824;49.648;8.640;2023-05-01T06:12:38;100163.09;;;12.74;100.00
46087;BME280;31824;49.648;8.640;2023-05-01T06:15:47;100161.94;;;13.03;100.00
46087;BME280;31824;49.648;8.640;2023-05-01T06:18:49;100165.59;;;13.15;100.00
46087;BME280;31824;49.648;8.640;2023-05-01T06:21:52;100154.13;;;13.47;100.00
46087;BME280;31824;49.648;8.640;2023-05-01T06:24:55;100159.53;;;13.48;100.00
46087;BME280;31824;49.648;8.640;2023-05-01T06:28:01;100157.84;;;13.61;100.00
46087;BME280;31824;49.648;8.640;2023-05-01T06:31:05;100150.06;;;13.62;100.00
46087;BME280;31824;49.648;8.640;2023-05-01T06:34:12;100158.66;;;13.82;100.00
46087;BME280;31824;49.648;8.640;2023-05-01T06:37:22;100154.81;;;13.44;100.00
46087;BME280;31824;49.648;8.640;2023-05-01T06:40:25;100155.66;;;13.23;100.00
46087;BME280;31824;49.648;8.640;2023-05-01T06:43:29;100151.19;;;13.22;100.00
46087;BME280;31824;49.648;8.640;2023-05-01T06:46:32;100152.16;;;13.44;100.00
46087;BME280;31824;49.648;8.640;2023-05-01T06:49:33;100160.13;;;13.78;100.00
46087;BME280;31824;49.648;8.640;2023-05-01T06:52:35;100160.25;;;13.80;100.00
46087;BME280;31824;49.648;8.640;2023-05-01T06:55:39;100166.31;;;14.01;100.00
46087;BME280;31824;49.648;8.640;2023-05-01T06:58:42;100162.13;;;14.27;100.00
46087;BME280;31824;49.648;8.640;2023-05-01T07:01:44;100165.25;;;14.45;100.00
46087;BME280;31824;49.648;8.640;2023-05-01T07:04:46;100166.75;;;14.07;100.00
46087;BME280;31824;49.648;8.640;2023-05-01T07:07:48;100163.38;;;14.20;100.00
46087;BME280;31824;49.648;8.640;2023-05-01T07:11:01;100158.72;;;14.06;100.00
46087;BME280;31824;49.648;8.640;2023-05-01T07:14:04;100155.78;;;14.25;100.00
46087;BME280;31824;49.648;8.640;2023-05-01T07:17:07;100168.78;;;13.88;100.00
46087;BME280;31824;49.648;8.640;2023-05-01T07:20:10;100167.66;;;13.96;100.00
46087;BME280;31824;49.648;8.640;2023-05-01T07:23:13;100159.97;;;13.99;100.00
46087;BME280;31824;49.648;8.640;2023-05-01T07:26:15;100155.09;;;14.27;100.00
46087;BME280;31824;49.648;8.640;2023-05-01T07:29:18;100156.28;;;14.31;100.00
46087;BME280;31824;49.648;8.640;2023-05-01T07:32:20;100156.44;;;14.68;100.00
46087;BME280;31824;49.648;8.640;2023-05-01T07:35:22;100155.88;;;14.84;100.00
46087;BME280;31824;49.648;8.640;2023-05-01T07:38:25;100157.00;;;14.99;100.00
46087;BME280;31824;49.648;8.640;2023-05-01T07:41:27;100157.81;;;14.98;100.00
46087;BME280;31824;49.648;8.640;2023-05-01T07:44:30;100157.34;;;14.68;100.00
46087;BME280;31824;49.648;8.640;2023-05-01T07:47:32;100153.44;;;14.75;100.00
46087;BME280;31824;49.648;8.640;2023-05-01T07:50:34;100160.25;;;14.72;100.00
46087;BME280;31824;49.648;8.640;2023-05-01T07:53:36;100166.97;;;14.44;100.00
46087;BME280;31824;49.648;8.640;2023-05-01T07:56:41;100160.59;;;14.88;100.00
46087;BME280;31824;49.648;8.640;2023-05-01T07:59:44;100160.00;;;14.80;100.00
46087;BME280;31824;49.648;8.640;2023-05-01T08:02:47;100156.78;;;14.84;100.00
46087;BME280;31824;49.648;8.640;2023-05-01T08:05:50;100161.50;;;15.12;100.00
46087;BME280;31824;49.648;8.640;2023-05-01T08:08:51;100158.84;;;15.12;100.00
46087;BME280;31824;49.648;8.640;2023-05-01T08:11:53;100149.38;;;15.28;100.00
46087;BME280;31824;49.648;8.640;2023-05-01T08:14:56;100158.41;;;15.43;100.00
46087;BME280;31824;49.648;8.640;2023-05-01T08:17:58;100159.84;;;15.38;100.00
46087;BME280;31824;49.648;8.640;2023-05-01T08:21:00;100160.38;;;14.85;100.00
46087;BME280;31824;49.648;8.640;2023-05-01T08:24:02;100157.41;;;15.41;100.00
46087;BME280;31824;49.648;8.640;2023-05-01T08:27:04;100155.28;;;15.49;100.00
46087;BME280;31824;49.648;8.640;2023-05-01T08:30:08;100161.16;;;15.45;100.00
46087;BME280;31824;49.648;8.640;2023-05-01T08:33:10;100165.25;;;15.28;100.00
46087;BME280;31824;49.648;8.640;2023-05-01T08:36:12;100165.94;;;15.37;100.00
46087;BME280;31824;49.648;8.640;2023-05-01T08:39:14;100165.81;;;15.84;100.00
46087;BME280;31824;49.648;8.640;2023-05-01T08:42:16;100156.13;;;15.48;100.00
46087;BME280;31824;49.648;8.640;2023-05-01T08:45:22;100162.09;;;15.45;100.00
46087;BME280;31824;49.648;8.640;2023-05-01T08:48:24;100161.66;;;15.76;100.00
46087;BME280;31824;49.648;8.640;2023-05-01T08:51:29;100155.94;;;16.20;100.00
46087;BME280;31824;49.648;8.640;2023-05-01T08:54:32;100155.81;;;16.71;100.00
46087;BME280;31824;49.648;8.640;2023-05-01T08:57:35;100150.78;;;16.49;100.00
46087;BME280;31824;49.648;8.640;2023-05-01T09:00:40;100151.22;;;16.16;100.00
46087;BME280;31824;49.648;8.640;2023-05-01T09:03:44;100155.16;;;16.35;100.00
46087;BME280;31824;49.648;8.640;2023-05-01T09:06:46;100150.00;;;16.50;100.00
46087;BME280;31824;49.648;8.640;2023-05-01T09:09:49;100166.03;;;17.05;100.00
46087;BME280;31824;49.648;8.640;2023-05-01T09:12:55;100155.66;;;16.95;100.00
46087;BME280;31824;49.648;8.640;2023-05-01T09:15:59;100151.72;;;16.76;100.00
46087;BME280;31824;49.648;8.640;2023-05-01T09:19:02;100154.72;;;16.94;100.00
46087;BME280;31824;49.648;8.640;2023-05-01T09:22:04;100151.53;;;16.86;100.00
46087;BME280;31824;49.648;8.640;2023-05-01T09:25:07;100153.38;;;17.01;100.00
46087;BME280;31824;49.648;8.640;2023-05-01T09:28:10;100154.09;;;16.98;100.00
46087;BME280;31824;49.648;8.640;2023-05-01T09:31:24;100148.59;;;17.09;100.00
46087;BME280;31824;49.648;8.640;2023-05-01T09:34:28;100147.94;;;16.86;100.00
46087;BME280;31824;49.648;8.640;2023-05-01T09:37:31;100145.00;;;16.81;100.00
46087;BME280;31824;49.648;8.640;2023-05-01T09:40:33;100152.34;;;16.72;100.00
46087;BME280;31824;49.648;8.640;2023-05-01T09:43:35;100156.41;;;16.40;100.00
46087;BME280;31824;49.648;8.640;2023-05-01T09:46:41;100158.00;;;16.38;100.00
46087;BME280;31824;49.648;8.640;2023-05-01T09:49:46;100152.09;;;16.42;100.00
46087;BME280;31824;49.648;8.640;2023-05-01T09:52:49;100150.56;;;16.32;100.00
46087;BME280;31824;49.648;8.640;2023-05-01T09:55:59;100146.63;;;16.52;100.00
46087;BME280;31824;49.648;8.640;2023-05-01T09:59:14;100159.25;;;16.04;100.00
46087;BME280;31824;49.648;8.640;2023-05-01T10:02:27;100150.19;;;16.01;100.00
46087;BME280;31824;49.648;8.640;2023-05-01T10:05:41;100146.56;;;16.26;100.00
46087;BME280;31824;49.648;8.640;2023-05-01T10:08:48;100149.94;;;16.23;100.00
46087;BME280;31824;49.648;8.640;2023-05-01T10:11:51;100143.41;;;16.31;100.00
46087;BME280;31824;49.648;8.640;2023-05-01T10:14:55;100140.63;;;16.55;100.00
46087;BME280;31824;49.648;8.640;2023-05-01T10:17:59;100145.72;;;16.65;100.00
46087;BME280;31824;49.648;8.640;2023-05-01T10:21:01;100151.03;;;16.79;100.00
46087;BME280;31824;49.648;8.640;2023-05-01T10:24:04;100150.16;;;17.47;100.00
46087;BME280;31824;49.648;8.640;2023-05-01T10:27:06;100142.66;;;17.26;100.00
46087;BME280;31824;49.648;8.640;2023-05-01T10:30:11;100133.66;;;17.11;100.00
46087;BME280;31824;49.648;8.640;2023-05-01T10:33:15;100139.50;;;16.78;100.00
46087;BME280;31824;49.648;8.640;2023-05-01T10:36:20;100138.34;;;17.28;100.00
46087;BME280;31824;49.648;8.640;2023-05-01T10:39:29;100133.06;;;17.57;100.00
46087;BME280;31824;49.648;8.640;2023-05-01T10:42:32;100140.03;;;17.54;100.00
46087;BME280;31824;49.648;8.640;2023-05-01T10:45:34;100135.72;;;17.57;100.00
46087;BME280;31824;49.648;8.640;2023-05-01T10:48:56;100134.72;;;17.83;100.00
46087;BME280;31824;49.648;8.640;2023-05-01T10:51:59;100146.88;;;17.79;100.00
46087;BME280;31824;49.648;8.640;2023-05-01T10:55:32;100136.34;;;17.52;100.00
46087;BME280;31824;49.648;8.640;2023-05-01T10:58:53;100132.34;;;18.31;100.00
46087;BME280;31824;49.648;8.640;2023-05-01T11:01:56;100135.69;;;17.70;100.00
46087;BME280;31824;49.648;8.640;2023-05-01T11:04:59;100129.88;;;17.91;100.00
46087;BME280;31824;49.648;8.640;2023-05-01T11:08:27;100133.31;;;18.03;100.00
46087;BME280;31824;49.648;8.640;2023-05-01T11:11:48;100118.78;;;17.83;100.00
46087;BME280;31824;49.648;8.640;2023-05-01T11:15:01;100125.09;;;17.85;100.00
46087;BME280;31824;49.648;8.640;2023-05-01T11:18:04;100121.72;;;18.31;100.00
46087;BME280;31824;49.648;8.640;2023-05-01T11:21:09;100119.41;;;18.52;100.00
46087;BME280;31824;49.648;8.640;2023-05-01T11:24:11;100112.53;;;18.55;100.00
46087;BME280;31824;49.648;8.640;2023-05-01T11:27:13;100115.69;;;19.10;100.00
46087;BME280;31824;49.648;8.640;2023-05-01T11:30:15;100115.38;;;18.29;100.00
46087;BME280;31824;49.648;8.640;2023-05-01T11:33:22;100116.31;;;18.44;100.00
46087;BME280;31824;49.648;8.640;2023-05-01T11:36:28;100116.16;;;19.34;100.00
46087;BME280;31824;49.648;8.640;2023-05-01T11:39:32;100109.03;;;18.56;100.00
46087;BME280;31824;49.648;8.640;2023-05-01T11:42:33;100111.03;;;18.91;100.00
46087;BME280;31824;49.648;8.640;2023-05-01T11:45:36;100104.72;;;18.44;100.00
46087;BME280;31824;49.648;8.640;2023-05-01T11:48:38;100102.44;;;18.65;100.00
46087;BME280;31824;49.648;8.640;2023-05-01T11:51:41;100106.25;;;19.31;100.00
46087;BME280;31824;49.648;8.640;2023-05-01T11:54:46;100102.22;;;18.62;100.00
46087;BME280;31824;49.648;8.640;2023-05-01T11:57:50;100103.72;;;19.34;100.00
46087;BME280;31824;49.648;8.640;2023-05-01T12:00:54;100097.28;;;19.79;100.00
46087;BME280;31824;49.648;8.640;2023-05-01T12:03:56;100095.44;;;20.29;100.00
46087;BME280;31824;49.648;8.640;2023-05-01T12:07:00;100092.69;;;19.76;100.00
46087;BME280;31824;49.648;8.640;2023-05-01T12:10:02;100090.09;;;18.97;100.00
46087;BME280;31824;49.648;8.640;2023-05-01T12:13:06;100092.84;;;19.96;100.00
46087;BME280;31824;49.648;8.640;2023-05-01T12:16:09;100091.81;;;20.27;100.00
46087;BME280;31824;49.648;8.640;2023-05-01T12:19:13;100095.13;;;20.57;100.00
46087;BME280;31824;49.648;8.640;2023-05-01T12:22:16;100085.38;;;19.88;100.00
46087;BME280;31824;49.648;8.640;2023-05-01T12:25:18;100081.56;;;20.18;100.00
46087;BME280;31824;49.648;8.640;2023-05-01T12:28:21;100086.50;;;19.94;100.00
46087;BME280;31824;49.648;8.640;2023-05-01T12:31:23;100082.19;;;19.63;100.00
46087;BME280;31824;49.648;8.640;2023-05-01T12:34:28;100084.66;;;19.27;100.00
46087;BME280;31824;49.648;8.640;2023-05-01T12:37:32;100077.84;;;19.48;100.00
46087;BME280;31824;49.648;8.640;2023-05-01T12:40:37;100091.84;;;19.44;100.00
46087;BME280;31824;49.648;8.640;2023-05-01T12:43:38;100088.63;;;19.83;100.00
46087;BME280;31824;49.648;8.640;2023-05-01T12:46:43;100089.09;;;19.76;100.00
46087;BME280;31824;49.648;8.640;2023-05-01T12:49:47;100087.09;;;20.39;100.00
46087;BME280;31824;49.648;8.640;2023-05-01T12:55:54;100086.69;;;19.64;100.00
46087;BME280;31824;49.648;8.640;2023-05-01T12:58:56;100089.41;;;20.67;100.00
46087;BME280;31824;49.648;8.640;2023-05-01T13:02:01;100084.84;;;21.19;100.00
46087;BME280;31824;49.648;8.640;2023-05-01T13:05:08;100074.50;;;21.64;100.00
46087;BME280;31824;49.648;8.640;2023-05-01T13:08:12;100073.59;;;21.64;95.66
46087;BME280;31824;49.648;8.640;2023-05-01T13:11:15;100079.94;;;21.10;94.74
46087;BME280;31824;49.648;8.640;2023-05-01T13:14:17;100071.47;;;21.01;93.33
46087;BME280;31824;49.648;8.640;2023-05-01T13:17:23;100074.69;;;20.05;100.00
46087;BME280;31824;49.648;8.640;2023-05-01T13:20:28;100069.59;;;20.80;96.46
46087;BME280;31824;49.648;8.640;2023-05-01T13:23:32;100068.63;;;21.16;96.75
46087;BME280;31824;49.648;8.640;2023-05-01T13:26:34;100077.09;;;20.35;95.79
46087;BME280;31824;49.648;8.640;2023-05-01T13:29:37;100065.66;;;20.03;100.00
46087;BME280;31824;49.648;8.640;2023-05-01T13:32:40;100077.94;;;20.34;100.00
46087;BME280;31824;49.648;8.640;2023-05-01T13:35:42;100077.53;;;19.75;100.00
46087;BME280;31824;49.648;8.640;2023-05-01T13:38:48;100080.66;;;19.35;100.00
46087;BME280;31824;49.648;8.640;2023-05-01T13:41:52;100071.53;;;19.46;100.00
46087;BME280;31824;49.648;8.640;2023-05-01T13:44:55;100071.63;;;19.64;98.04
46087;BME280;31824;49.648;8.640;2023-05-01T13:47:57;100074.03;;;19.76;99.97
46087;BME280;31824;49.648;8.640;2023-05-01T13:50:59;100067.59;;;20.05;98.57
46087;BME280;31824;49.648;8.640;2023-05-01T13:54:04;100066.38;;;19.82;90.90
46087;BME280;31824;49.648;8.640;2023-05-01T13:57:08;100070.47;;;20.27;89.36
46087;BME280;31824;49.648;8.640;2023-05-01T14:00:14;100069.63;;;19.60;88.64
46087;BME280;31824;49.648;8.640;2023-05-01T14:03:18;100059.69;;;19.90;88.88
46087;BME280;31824;49.648;8.640;2023-05-01T14:06:22;100063.00;;;20.55;77.31
46087;BME280;31824;49.648;8.640;2023-05-01T14:09:34;100055.16;;;20.58;82.20
46087;BME280;31824;49.648;8.640;2023-05-01T14:12:37;100052.47;;;21.13;79.06
46087;BME280;31824;49.648;8.640;2023-05-01T14:15:40;100050.28;;;21.81;73.70
46087;BME280;31824;49.648;8.640;2023-05-01T14:18:46;100044.22;;;21.85;75.94
46087;BME280;31824;49.648;8.640;2023-05-01T14:21:48;100048.78;;;22.28;89.88
46087;BME280;31824;49.648;8.640;2023-05-01T14:24:51;100049.59;;;21.65;84.42
46087;BME280;31824;49.648;8.640;2023-05-01T14:27:54;100035.53;;;21.32;86.73
46087;BME280;31824;49.648;8.640;2023-05-01T14:30:55;100029.53;;;21.75;88.88
46087;BME280;31824;49.648;8.640;2023-05-01T14:33:59;100039.53;;;22.00;70.48
46087;BME280;31824;49.648;8.640;2023-05-01T14:37:01;100033.38;;;21.42;71.64
46087;BME280;31824;49.648;8.640;2023-05-01T14:40:10;100030.09;;;20.55;78.28
46087;BME280;31824;49.648;8.640;2023-05-01T14:43:15;100033.41;;;21.05;75.11
46087;BME280;31824;49.648;8.640;2023-05-01T14:46:28;100029.31;;;22.53;65.40
46087;BME280;31824;49.648;8.640;2023-05-01T14:49:31;100031.09;;;22.32;60.82
46087;BME280;31824;49.648;8.640;2023-05-01T14:52:34;100038.53;;;23.04;63.40
46087;BME280;31824;49.648;8.640;2023-05-01T14:55:40;100030.34;;;23.46;61.68
46087;BME280;31824;49.648;8.640;2023-05-01T14:58:42;100027.00;;;23.29;60.31
46087;BME280;31824;49.648;8.640;2023-05-01T15:01:44;100034.03;;;22.38;66.81
46087;BME280;31824;49.648;8.640;2023-05-01T15:04:47;100034.56;;;22.50;59.93
46087;BME280;31824;49.648;8.640;2023-05-01T15:07:50;100038.22;;;21.90;73.81
46087;BME280;31824;49.648;8.640;2023-05-01T15:10:54;100033.56;;;21.08;70.17
46087;BME280;31824;49.648;8.640;2023-05-01T15:13:56;100034.78;;;21.15;70.35
46087;BME280;31824;49.648;8.640;2023-05-01T15:16:58;100044.25;;;20.54;68.80
46087;BME280;31824;49.648;8.640;2023-05-01T15:19:59;100038.06;;;20.37;69.72
46087;BME280;31824;49.648;8.640;2023-05-01T15:23:01;100025.97;;;20.62;69.67
46087;BME280;31824;49.648;8.640;2023-05-01T15:26:04;100029.72;;;19.62;79.79
46087;BME280;31824;49.648;8.640;2023-05-01T15:29:06;100032.34;;;19.95;82.45
46087;BME280;31824;49.648;8.640;2023-05-01T15:32:08;100026.66;;;21.13;83.52
46087;BME280;31824;49.648;8.640;2023-05-01T15:35:13;100030.72;;;23.10;66.28
46087;BME280;31824;49.648;8.640;2023-05-01T15:38:15;100029.91;;;22.90;67.75
46087;BME280;31824;49.648;8.640;2023-05-01T15:41:19;100036.34;;;24.39;57.94
46087;BME280;31824;49.648;8.640;2023-05-01T15:44:21;100040.28;;;24.23;60.47
46087;BME280;31824;49.648;8.640;2023-05-01T15:47:23;100038.19;;;24.40;50.72
46087;BME280;31824;49.648;8.640;2023-05-01T15:50:25;100044.88;;;24.80;47.84
46087;BME280;31824;49.648;8.640;2023-05-01T15:53:28;100042.13;;;24.77;47.55
46087;BME280;31824;49.648;8.640;2023-05-01T15:56:35;100039.88;;;24.38;53.38
46087;BME280;31824;49.648;8.640;2023-05-01T15:59:39;100035.22;;;21.06;63.20